sensor_id;sensor_type;location;lat;lon;timestamp;pressure;altitude;pressure_sealevel;temperature;humidity
49999;BME280;68071;45.062;7.356;2023-04-08T00:00:31;95130.38;;;4.20;97.15
49999;BME280;68071;45.062;7.356;2023-04-08T00:03:35;95125.41;;;4.03;97.80
49999;BME280;68071;45.062;7.356;2023-04-08T00:06:39;95116.06;;;4.31;95.92
49999;BME280;68071;45.062;7.356;2023-04-08T00:09:43;95113.03;;;4.97;87.74
49999;BME280;68071;45.062;7.356;2023-04-08T00:12:48;95111.19;;;4.74;90.46
49999;BME280;68071;45.062;7.356;2023-04-08T00:15:52;95109.78;;;5.22;84.77
49999;BME280;68071;45.062;7.356;2023-04-08T00:18:56;95104.28;;;4.84;89.00
49999;BME280;68071;45.062;7.356;2023-04-08T00:22:00;95098.94;;;4.37;94.91
49999;BME280;68071;45.062;7.356;2023-04-08T00:25:04;95086.97;;;4.46;92.37
49999;BME280;68071;45.062;7.356;2023-04-08T00:28:09;95090.63;;;5.22;85.36
49999;BME280;68071;45.062;7.356;2023-04-08T00:31:13;95092.03;;;5.08;90.25
49999;BME280;68071;45.062;7.356;2023-04-08T00:34:17;95096.69;;;4.74;93.88
49999;BME280;68071;45.062;7.356;2023-04-08T00:37:21;95100.69;;;4.49;96.32
49999;BME280;68071;45.062;7.356;2023-04-08T00:40:25;95104.34;;;4.30;97.86
49999;BME280;68071;45.062;7.356;2023-04-08T00:43:29;95098.38;;;3.98;100.00
49999;BME280;68071;45.062;7.356;2023-04-08T00:46:38;95098.75;;;4.23;97.14
49999;BME280;68071;45.062;7.356;2023-04-08T00:49:43;95099.75;;;4.38;94.65
49999;BME280;68071;45.062;7.356;2023-04-08T00:52:47;95095.03;;;4.65;92.57
49999;BME280;68071;45.062;7.356;2023-04-08T00:55:51;95105.41;;;3.99;100.00
49999;BME280;68071;45.062;7.356;2023-04-08T00:58:55;95104.69;;;4.02;100.00
49999;BME280;68071;45.062;7.356;2023-04-08T01:05:49;95110.75;;;3.91;100.00
49999;BME280;68071;45.062;7.356;2023-04-08T01:08:53;95102.03;;;3.82;100.00
49999;BME280;68071;45.062;7.356;2023-04-08T01:11:59;95104.00;;;3.62;100.00
49999;BME280;68071;45.062;7.356;2023-04-08T01:15:07;95104.81;;;3.39;100.00
49999;BME280;68071;45.062;7.356;2023-04-08T01:18:14;95100.28;;;4.20;88.40
49999;BME280;68071;45.062;7.356;2023-04-08T01:21:19;95100.59;;;4.42;81.57
49999;BME280;68071;45.062;7.356;2023-04-08T01:24:28;95113.75;;;4.06;86.49
49999;BME280;68071;45.062;7.356;2023-04-08T01:27:34;95115.50;;;3.94;89.28
49999;BME280;68071;45.062;7.356;2023-04-08T01:30:40;95122.22;;;3.54;94.24
49999;BME280;68071;45.062;7.356;2023-04-08T01:33:45;95118.13;;;3.01;96.44
49999;BME280;68071;45.062;7.356;2023-04-08T01:36:51;95120.78;;;3.17;93.82
49999;BME280;68071;45.062;7.356;2023-04-08T01:39:56;95114.91;;;2.96;97.25
49999;BME280;68071;45.062;7.356;2023-04-08T01:43:03;95116.25;;;3.25;94.71
49999;BME280;68071;45.062;7.356;2023-04-08T01:46:07;95116.75;;;2.92;98.19
49999;BME280;68071;45.062;7.356;2023-04-08T01:49:14;95114.38;;;3.29;94.23
49999;BME280;68071;45.062;7.356;2023-04-08T01:52:19;95123.28;;;3.46;93.39
49999;BME280;68071;45.062;7.356;2023-04-08T01:55:24;95127.47;;;2.81;96.87
49999;BME280;68071;45.062;7.356;2023-04-08T01:58:34;95123.78;;;2.73;95.82
49999;BME280;68071;45.062;7.356;2023-04-08T02:01:41;95124.66;;;3.36;89.95
49999;BME280;68071;45.062;7.356;2023-04-08T02:04:46;95124.81;;;3.04;88.81
49999;BME280;68071;45.062;7.356;2023-04-08T02:07:50;95122.66;;;2.74;90.77
49999;BME280;68071;45.062;7.356;2023-04-08T02:10:55;95122.94;;;2.88;90.22
49999;BME280;68071;45.062;7.356;2023-04-08T02:13:59;95133.84;;;4.17;77.69
49999;BME280;68071;45.062;7.356;2023-04-08T02:20:09;95131.03;;;2.65;91.73
49999;BME280;68071;45.062;7.356;2023-04-08T02:23:23;95130.19;;;3.63;83.88
49999;BME280;68071;45.062;7.356;2023-04-08T02:26:27;95123.72;;;4.75;72.64
49999;BME280;68071;45.062;7.356;2023-04-08T02:29:33;95126.16;;;4.53;79.04
49999;BME280;68071;45.062;7.356;2023-04-08T02:32:39;95123.88;;;2.77;90.02
49999;BME280;68071;45.062;7.356;2023-04-08T02:35:46;95119.50;;;3.54;81.95
49999;BME280;68071;45.062;7.356;2023-04-08T02:38:51;95128.44;;;3.31;86.12
49999;BME280;68071;45.062;7.356;2023-04-08T02:41:55;95125.09;;;3.18;87.94
49999;BME280;68071;45.062;7.356;2023-04-08T02:44:59;95126.91;;;3.30;91.11
49999;BME280;68071;45.062;7.356;2023-04-08T02:48:03;95121.13;;;3.36;90.34
49999;BME280;68071;45.062;7.356;2023-04-08T02:51:09;95119.50;;;3.11;87.50
49999;BME280;68071;45.062;7.356;2023-04-08T02:54:13;95113.25;;;3.11;87.08
49999;BME280;68071;45.062;7.356;2023-04-08T02:57:18;95110.53;;;2.91;86.05
49999;BME280;68071;45.062;7.356;2023-04-08T03:00:21;95111.50;;;3.22;82.42
49999;BME280;68071;45.062;7.356;2023-04-08T03:03:25;95116.53;;;3.20;88.63
49999;BME280;68071;45.062;7.356;2023-04-08T03:06:33;95112.09;;;3.12;90.14
49999;BME280;68071;45.062;7.356;2023-04-08T03:09:38;95100.03;;;2.74;88.67
49999;BME280;68071;45.062;7.356;2023-04-08T03:12:42;95103.28;;;2.99;83.63
49999;BME280;68071;45.062;7.356;2023-04-08T03:15:46;95105.28;;;3.45;76.71
49999;BME280;68071;45.062;7.356;2023-04-08T03:18:50;95105.59;;;3.63;81.43
49999;BME280;68071;45.062;7.356;2023-04-08T03:21:53;95110.09;;;2.89;86.54
49999;BME280;68071;45.062;7.356;2023-04-08T03:24:57;95109.06;;;2.58;92.98
49999;BME280;68071;45.062;7.356;2023-04-08T03:28:01;95100.00;;;3.13;84.48
49999;BME280;68071;45.062;7.356;2023-04-08T03:31:05;95097.84;;;3.22;76.63
49999;BME280;68071;45.062;7.356;2023-04-08T03:34:09;95102.50;;;3.22;80.35
49999;BME280;68071;45.062;7.356;2023-04-08T03:37:13;95103.34;;;2.83;83.24
49999;BME280;68071;45.062;7.356;2023-04-08T03:40:17;95102.03;;;2.96;81.58
49999;BME280;68071;45.062;7.356;2023-04-08T03:43:21;95099.91;;;3.95;67.13
49999;BME280;68071;45.062;7.356;2023-04-08T03:46:26;95096.91;;;3.34;75.79
49999;BME280;68071;45.062;7.356;2023-04-08T03:49:30;95103.03;;;3.08;80.70
49999;BME280;68071;45.062;7.356;2023-04-08T03:52:33;95102.53;;;2.63;84.93
49999;BME280;68071;45.062;7.356;2023-04-08T03:55:38;95100.91;;;2.06;88.17
49999;BME280;68071;45.062;7.356;2023-04-08T03:58:42;95099.50;;;2.13;84.70
49999;BME280;68071;45.062;7.356;2023-04-08T04:01:46;95101.94;;;2.53;77.97
49999;BME280;68071;45.062;7.356;2023-04-08T04:04:50;95098.28;;;1.94;84.50
49999;BME280;68071;45.062;7.356;2023-04-08T04:07:54;95094.00;;;1.93;85.69
49999;BME280;68071;45.062;7.356;2023-04-08T04:10:58;95097.41;;;2.06;85.65
49999;BME280;68071;45.062;7.356;2023-04-08T04:14:02;95099.69;;;2.04;85.49
49999;BME280;68071;45.062;7.356;2023-04-08T04:17:06;95095.66;;;1.98;88.51
49999;BME280;68071;45.062;7.356;2023-04-08T04:20:11;95102.34;;;2.71;82.46
49999;BME280;68071;45.062;7.356;2023-04-08T04:23:14;95101.03;;;2.65;80.94
49999;BME280;68071;45.062;7.356;2023-04-08T04:26:18;95092.13;;;1.97;89.09
49999;BME280;68071;45.062;7.356;2023-04-08T04:29:23;95100.66;;;2.67;82.64
49999;BME280;68071;45.062;7.356;2023-04-08T04:32:27;95103.19;;;2.76;82.11
49999;BME280;68071;45.062;7.356;2023-04-08T04:35:32;95102.25;;;2.68;86.48
49999;BME280;68071;45.062;7.356;2023-04-08T04:38:36;95100.31;;;2.68;82.85
49999;BME280;68071;45.062;7.356;2023-04-08T04:41:41;95096.25;;;2.42;84.47
49999;BME280;68071;45.062;7.356;2023-04-08T04:44:45;95098.78;;;2.51;82.74
49999;BME280;68071;45.062;7.356;2023-04-08T04:47:49;95101.06;;;4.21;66.51
49999;BME280;68071;45.062;7.356;2023-04-08T04:50:56;95101.69;;;3.17;76.43
49999;BME280;68071;45.062;7.356;2023-04-08T04:54:01;95104.91;;;2.84;81.34
49999;BME280;68071;45.062;7.356;2023-04-08T04:57:06;95106.13;;;2.67;90.89
49999;BME280;68071;45.062;7.356;2023-04-08T05:00:10;95110.94;;;2.54;88.39
49999;BME280;68071;45.062;7.356;2023-04-08T05:03:14;95109.22;;;3.05;84.66
49999;BME280;68071;45.062;7.356;2023-04-08T05:06:18;95116.53;;;2.61;88.18
49999;BME280;68071;45.062;7.356;2023-04-08T05:09:22;95105.94;;;2.40;90.16
49999;BME280;68071;45.062;7.356;2023-04-08T05:12:26;95111.34;;;2.36;91.06
49999;BME280;68071;45.062;7.356;2023-04-08T05:15:31;95113.25;;;3.11;86.63
49999;BME280;68071;45.062;7.356;2023-04-08T05:18:35;95113.03;;;2.80;91.66
49999;BME280;68071;45.062;7.356;2023-04-08T05:21:39;95119.56;;;2.76;93.28
49999;BME280;68071;45.062;7.356;2023-04-08T05:24:43;95112.09;;;2.92;87.74
49999;BME280;68071;45.062;7.356;2023-04-08T05:27:47;95118.78;;;2.95;89.60
49999;BME280;68071;45.062;7.356;2023-04-08T05:30:52;95111.09;;;3.00;89.39
49999;BME280;68071;45.062;7.356;2023-04-08T05:33:56;95118.47;;;2.61;89.09
49999;BME280;68071;45.062;7.356;2023-04-08T05:37:00;95116.50;;;3.40;85.38
49999;BME280;68071;45.062;7.356;2023-04-08T05:40:04;95118.81;;;3.38;85.15
49999;BME280;68071;45.062;7.356;2023-04-08T05:43:08;95123.69;;;2.50;94.76
49999;BME280;68071;45.062;7.356;2023-04-08T05:46:12;95114.19;;;2.79;94.73
49999;BME280;68071;45.062;7.356;2023-04-08T05:49:16;95123.59;;;3.21;91.83
49999;BME280;68071;45.062;7.356;2023-04-08T05:52:20;95118.34;;;3.55;88.46
49999;BME280;68071;45.062;7.356;2023-04-08T05:55:24;95126.75;;;3.66;84.72
49999;BME280;68071;45.062;7.356;2023-04-08T05:58:28;95128.81;;;3.96;87.96
49999;BME280;68071;45.062;7.356;2023-04-08T06:01:32;95130.19;;;4.09;91.16
49999;BME280;68071;45.062;7.356;2023-04-08T06:04:36;95125.63;;;4.17;89.04
49999;BME280;68071;45.062;7.356;2023-04-08T06:07:40;95131.28;;;3.58;94.46
49999;BME280;68071;45.062;7.356;2023-04-08T06:10:48;95127.00;;;4.04;90.98
49999;BME280;68071;45.062;7.356;2023-04-08T06:13:53;95120.22;;;4.48;94.40
49999;BME280;68071;45.062;7.356;2023-04-08T06:16:57;95138.03;;;4.65;92.90
49999;BME280;68071;45.062;7.356;2023-04-08T06:20:01;95136.59;;;4.75;88.29
49999;BME280;68071;45.062;7.356;2023-04-08T06:23:06;95135.97;;;4.85;91.01
49999;BME280;68071;45.062;7.356;2023-04-08T06:26:09;95141.31;;;5.39;85.22
49999;BME280;68071;45.062;7.356;2023-04-08T06:29:13;95124.25;;;5.53;82.02
49999;BME280;68071;45.062;7.356;2023-04-08T06:32:18;95133.78;;;5.70;78.94
49999;BME280;68071;45.062;7.356;2023-04-08T06:35:22;95126.06;;;5.79;84.52
49999;BME280;68071;45.062;7.356;2023-04-08T06:38:26;95128.28;;;6.04;77.54
49999;BME280;68071;45.062;7.356;2023-04-08T06:41:30;95132.38;;;6.28;73.21
49999;BME280;68071;45.062;7.356;2023-04-08T06:44:39;95135.31;;;6.54;78.93
49999;BME280;68071;45.062;7.356;2023-04-08T06:47:43;95139.72;;;6.65;75.71
49999;BME280;68071;45.062;7.356;2023-04-08T06:50:48;95128.84;;;6.87;72.54
49999;BME280;68071;45.062;7.356;2023-04-08T06:53:52;95134.50;;;7.23;72.49
49999;BME280;68071;45.062;7.356;2023-04-08T06:56:56;95133.03;;;7.44;70.87
49999;BME280;68071;45.062;7.356;2023-04-08T07:00:00;95134.63;;;7.67;67.82
49999;BME280;68071;45.062;7.356;2023-04-08T07:03:04;95136.22;;;7.75;70.62
49999;BME280;68071;45.062;7.356;2023-04-08T07:06:09;95134.69;;;7.88;71.20
49999;BME280;68071;45.062;7.356;2023-04-08T07:09:13;95139.41;;;7.88;64.52
49999;BME280;68071;45.062;7.356;2023-04-08T07:12:17;95144.56;;;8.33;68.95
49999;BME280;68071;45.062;7.356;2023-04-08T07:15:21;95147.28;;;8.47;67.85
49999;BME280;68071;45.062;7.356;2023-04-08T07:18:25;95143.78;;;8.61;63.23
49999;BME280;68071;45.062;7.356;2023-04-08T07:21:30;95140.63;;;8.63;61.20
49999;BME280;68071;45.062;7.356;2023-04-08T07:24:34;95143.78;;;8.58;57.83
49999;BME280;68071;45.062;7.356;2023-04-08T07:27:38;95149.28;;;8.65;58.83
49999;BME280;68071;45.062;7.356;2023-04-08T07:30:42;95145.31;;;8.84;57.29
49999;BME280;68071;45.062;7.356;2023-04-08T07:33:46;95151.59;;;8.85;55.15
49999;BME280;68071;45.062;7.356;2023-04-08T07:36:50;95160.66;;;8.82;56.10
49999;BME280;68071;45.062;7.356;2023-04-08T07:39:54;95164.16;;;9.00;58.62
49999;BME280;68071;45.062;7.356;2023-04-08T07:42:58;95176.41;;;8.96;56.43
49999;BME280;68071;45.062;7.356;2023-04-08T07:46:03;95174.44;;;9.00;58.19
49999;BME280;68071;45.062;7.356;2023-04-08T07:49:08;95176.78;;;8.98;59.52
49999;BME280;68071;45.062;7.356;2023-04-08T07:52:12;95177.94;;;9.15;61.96
49999;BME280;68071;45.062;7.356;2023-04-08T07:55:16;95176.38;;;9.06;61.66
49999;BME280;68071;45.062;7.356;2023-04-08T07:58:20;95174.38;;;9.18;60.52
49999;BME280;68071;45.062;7.356;2023-04-08T08:01:24;95175.09;;;9.36;60.32
49999;BME280;68071;45.062;7.356;2023-04-08T08:04:30;95177.84;;;9.40;57.55
49999;BME280;68071;45.062;7.356;2023-04-08T08:07:35;95185.75;;;9.31;57.12
49999;BME280;68071;45.062;7.356;2023-04-08T08:10:40;95176.91;;;9.76;57.63
49999;BME280;68071;45.062;7.356;2023-04-08T08:13:44;95183.94;;;9.91;58.91
49999;BME280;68071;45.062;7.356;2023-04-08T08:16:48;95188.00;;;9.68;56.18
49999;BME280;68071;45.062;7.356;2023-04-08T08:19:52;95176.81;;;9.94;54.75
49999;BME280;68071;45.062;7.356;2023-04-08T08:22:56;95183.59;;;9.82;60.62
49999;BME280;68071;45.062;7.356;2023-04-08T08:26:01;95187.75;;;10.12;58.63
49999;BME280;68071;45.062;7.356;2023-04-08T08:29:05;95184.84;;;10.41;58.99
49999;BME280;68071;45.062;7.356;2023-04-08T08:32:10;95180.63;;;10.74;56.40
49999;BME280;68071;45.062;7.356;2023-04-08T08:35:15;95186.31;;;10.53;52.66
49999;BME280;68071;45.062;7.356;2023-04-08T08:38:19;95190.09;;;10.17;54.10
49999;BME280;68071;45.062;7.356;2023-04-08T08:41:24;95196.47;;;10.07;53.80
49999;BME280;68071;45.062;7.356;2023-04-08T08:44:29;95204.69;;;10.18;51.95
49999;BME280;68071;45.062;7.356;2023-04-08T08:47:33;95196.31;;;10.32;55.37
49999;BME280;68071;45.062;7.356;2023-04-08T08:50:37;95190.25;;;10.55;52.10
49999;BME280;68071;45.062;7.356;2023-04-08T08:53:41;95195.47;;;10.42;50.71
49999;BME280;68071;45.062;7.356;2023-04-08T08:56:48;95187.88;;;11.03;51.49
49999;BME280;68071;45.062;7.356;2023-04-08T08:59:52;95189.00;;;11.05;52.25
49999;BME280;68071;45.062;7.356;2023-04-08T09:02:56;95189.34;;;11.11;47.24
49999;BME280;68071;45.062;7.356;2023-04-08T09:06:06;95188.00;;;11.27;47.36
49999;BME280;68071;45.062;7.356;2023-04-08T09:09:10;95195.63;;;11.15;49.53
49999;BME280;68071;45.062;7.356;2023-04-08T09:12:14;95191.84;;;11.37;48.47
49999;BME280;68071;45.062;7.356;2023-04-08T09:15:18;95193.41;;;11.38;47.96
49999;BME280;68071;45.062;7.356;2023-04-08T09:18:22;95183.22;;;11.31;48.59
49999;BME280;68071;45.062;7.356;2023-04-08T09:21:26;95185.88;;;11.42;47.54
49999;BME280;68071;45.062;7.356;2023-04-08T09:24:30;95181.03;;;11.49;46.62
49999;BME280;68071;45.062;7.356;2023-04-08T09:27:34;95180.78;;;11.71;51.23
49999;BME280;68071;45.062;7.356;2023-04-08T09:30:39;95174.13;;;11.96;49.26
49999;BME280;68071;45.062;7.356;2023-04-08T09:33:43;95169.91;;;12.19;48.28
49999;BME280;68071;45.062;7.356;2023-04-08T09:36:46;95166.03;;;12.13;49.74
49999;BME280;68071;45.062;7.356;2023-04-08T09:39:51;95173.13;;;12.14;49.45
49999;BME280;68071;45.062;7.356;2023-04-08T09:42:56;95164.03;;;12.13;50.10
49999;BME280;68071;45.062;7.356;2023-04-08T09:46:03;95159.72;;;12.36;48.14
49999;BME280;68071;45.062;7.356;2023-04-08T09:52:46;95163.50;;;12.22;47.51
49999;BME280;68071;45.062;7.356;2023-04-08T09:55:55;95160.47;;;12.40;49.13
49999;BME280;68071;45.062;7.356;2023-04-08T09:59:02;95169.94;;;12.66;47.49
49999;BME280;68071;45.062;7.356;2023-04-08T10:02:16;95161.69;;;12.86;50.04
49999;BME280;68071;45.062;7.356;2023-04-08T10:05:23;95166.66;;;13.19;46.60
49999;BME280;68071;45.062;7.356;2023-04-08T10:08:27;95156.25;;;13.67;45.25
49999;BME280;68071;45.062;7.356;2023-04-08T10:11:34;95159.78;;;13.27;46.08
49999;BME280;68071;45.062;7.356;2023-04-08T10:14:39;95154.25;;;13.68;47.31
49999;BME280;68071;45.062;7.356;2023-04-08T10:17:43;95151.59;;;13.81;43.57
49999;BME280;68071;45.062;7.356;2023-04-08T10:20:47;95153.19;;;13.61;41.06
49999;BME280;68071;45.062;7.356;2023-04-08T10:23:54;95154.22;;;14.08;40.18
49999;BME280;68071;45.062;7.356;2023-04-08T10:26:59;95139.66;;;14.00;36.07
49999;BME280;68071;45.062;7.356;2023-04-08T10:33:34;95141.84;;;14.09;37.72
49999;BME280;68071;45.062;7.356;2023-04-08T10:36:37;95144.31;;;13.87;36.96
49999;BME280;68071;45.062;7.356;2023-04-08T10:39:48;95140.31;;;14.08;37.47
49999;BME280;68071;45.062;7.356;2023-04-08T10:42:58;95130.47;;;13.67;42.70
49999;BME280;68071;45.062;7.356;2023-04-08T10:46:03;95125.88;;;14.13;42.62
49999;BME280;68071;45.062;7.356;2023-04-08T10:49:07;95126.13;;;14.02;42.58
49999;BME280;68071;45.062;7.356;2023-04-08T10:52:11;95123.53;;;13.75;41.48
49999;BME280;68071;45.062;7.356;2023-04-08T10:55:15;95120.34;;;13.76;40.02
49999;BME280;68071;45.062;7.356;2023-04-08T10:58:21;95115.88;;;13.63;42.46
49999;BME280;68071;45.062;7.356;2023-04-08T11:01:25;95120.66;;;13.99;42.64
49999;BME280;68071;45.062;7.356;2023-04-08T11:04:29;95114.28;;;14.68;39.95
49999;BME280;68071;45.062;7.356;2023-04-08T11:07:39;95107.13;;;14.34;42.06
49999;BME280;68071;45.062;7.356;2023-04-08T11:10:45;95112.34;;;14.32;39.40
49999;BME280;68071;45.062;7.356;2023-04-08T11:13:49;95097.16;;;14.53;36.25
49999;BME280;68071;45.062;7.356;2023-04-08T11:16:53;95111.50;;;14.68;41.59
49999;BME280;68071;45.062;7.356;2023-04-08T11:19:58;95106.88;;;14.12;35.88
49999;BME280;68071;45.062;7.356;2023-04-08T11:23:12;95104.34;;;14.67;38.66
49999;BME280;68071;45.062;7.356;2023-04-08T11:26:17;95101.84;;;14.89;37.62
49999;BME280;68071;45.062;7.356;2023-04-08T11:29:22;95084.56;;;14.65;38.31
49999;BME280;68071;45.062;7.356;2023-04-08T11:32:27;95082.44;;;15.15;34.95
49999;BME280;68071;45.062;7.356;2023-04-08T11:35:31;95082.59;;;14.95;38.48
49999;BME280;68071;45.062;7.356;2023-04-08T11:38:38;95084.63;;;14.78;38.39
49999;BME280;68071;45.062;7.356;2023-04-08T11:41:43;95081.50;;;15.35;37.94
49999;BME280;68071;45.062;7.356;2023-04-08T11:44:47;95076.69;;;15.22;33.85
49999;BME280;68071;45.062;7.356;2023-04-08T11:47:52;95071.56;;;14.91;35.80
49999;BME280;68071;45.062;7.356;2023-04-08T11:51:04;95073.75;;;15.13;36.60
49999;BME280;68071;45.062;7.356;2023-04-08T11:54:30;95067.84;;;15.40;35.08
49999;BME280;68071;45.062;7.356;2023-04-08T11:57:35;95065.69;;;15.32;34.62
49999;BME280;68071;45.062;7.356;2023-04-08T12:00:40;95058.75;;;15.66;35.54
49999;BME280;68071;45.062;7.356;2023-04-08T12:03:56;95050.44;;;15.36;37.56
49999;BME280;68071;45.062;7.356;2023-04-08T12:07:00;95052.72;;;15.80;32.34
49999;BME280;68071;45.062;7.356;2023-04-08T12:10:04;95050.41;;;15.23;37.22
49999;BME280;68071;45.062;7.356;2023-04-08T12:13:09;95050.09;;;15.34;35.57
49999;BME280;68071;45.062;7.356;2023-04-08T12:16:13;95053.16;;;15.53;36.43
49999;BME280;68071;45.062;7.356;2023-04-08T12:19:17;95054.72;;;15.54;35.51
49999;BME280;68071;45.062;7.356;2023-04-08T12:22:21;95050.91;;;14.59;37.63
49999;BME280;68071;45.062;7.356;2023-04-08T12:25:25;95045.88;;;15.42;34.68
49999;BME280;68071;45.062;7.356;2023-04-08T12:28:30;95037.13;;;15.57;37.42
49999;BME280;68071;45.062;7.356;2023-04-08T12:31:34;95043.41;;;15.87;36.24
49999;BME280;68071;45.062;7.356;2023-04-08T12:34:38;95040.25;;;15.85;36.29
49999;BME280;68071;45.062;7.356;2023-04-08T12:37:42;95035.03;;;15.87;34.25
49999;BME280;68071;45.062;7.356;2023-04-08T12:40:46;95036.59;;;15.88;33.71
49999;BME280;68071;45.062;7.356;2023-04-08T12:43:50;95036.78;;;15.81;35.53
49999;BME280;68071;45.062;7.356;2023-04-08T12:46:54;95027.19;;;15.56;36.13
49999;BME280;68071;45.062;7.356;2023-04-08T12:50:01;95026.41;;;16.20;34.27
49999;BME280;68071;45.062;7.356;2023-04-08T12:53:05;95029.84;;;16.37;34.20
49999;BME280;68071;45.062;7.356;2023-04-08T12:56:10;95032.09;;;16.29;34.47
49999;BME280;68071;45.062;7.356;2023-04-08T12:59:14;95024.16;;;16.28;32.47
49999;BME280;68071;45.062;7.356;2023-04-08T13:02:18;95033.00;;;16.26;31.40
49999;BME280;68071;45.062;7.356;2023-04-08T13:05:23;95025.31;;;16.30;33.11
49999;BME280;68071;45.062;7.356;2023-04-08T13:08:27;95015.94;;;16.24;32.19
49999;BME280;68071;45.062;7.356;2023-04-08T13:11:32;95018.91;;;16.78;31.18
49999;BME280;68071;45.062;7.356;2023-04-08T13:14:37;95020.34;;;16.83;32.69
49999;BME280;68071;45.062;7.356;2023-04-08T13:17:41;95017.09;;;16.62;32.92
49999;BME280;68071;45.062;7.356;2023-04-08T13:20:45;95016.78;;;16.82;33.36
49999;BME280;68071;45.062;7.356;2023-04-08T13:23:49;95017.66;;;16.57;31.20
49999;BME280;68071;45.062;7.356;2023-04-08T13:26:53;95008.94;;;15.94;35.47
49999;BME280;68071;45.062;7.356;2023-04-08T13:29:57;94996.88;;;15.45;33.00
49999;BME280;68071;45.062;7.356;2023-04-08T13:33:01;94997.88;;;16.16;33.31
49999;BME280;68071;45.062;7.356;2023-04-08T13:36:05;94998.03;;;16.83;30.38
49999;BME280;68071;45.062;7.356;2023-04-08T13:39:09;95002.69;;;16.86;29.46
49999;BME280;68071;45.062;7.356;2023-04-08T13:42:13;95002.34;;;16.61;31.99
49999;BME280;68071;45.062;7.356;2023-04-08T13:45:18;95002.28;;;16.39;31.89
49999;BME280;68071;45.062;7.356;2023-04-08T13:48:22;94992.50;;;16.70;30.57
49999;BME280;68071;45.062;7.356;2023-04-08T13:51:26;95000.25;;;16.75;31.11
49999;BME280;68071;45.062;7.356;2023-04-08T13:54:30;94993.19;;;16.96;31.49
49999;BME280;68071;45.062;7.356;2023-04-08T13:57:34;94989.84;;;17.33;28.99
49999;BME280;68071;45.062;7.356;2023-04-08T14:00:38;94997.63;;;17.38;29.64
49999;BME280;68071;45.062;7.356;2023-04-08T14:03:42;94982.75;;;17.41;28.66
49999;BME280;68071;45.062;7.356;2023-04-08T14:06:47;94982.22;;;17.02;28.98
49999;BME280;68071;45.062;7.356;2023-04-08T14:09:53;94983.59;;;16.97;26.96
49999;BME280;68071;45.062;7.356;2023-04-08T14:12:57;94980.19;;;17.02;29.23
49999;BME280;68071;45.062;7.356;2023-04-08T14:16:01;94985.69;;;17.15;29.50
49999;BME280;68071;45.062;7.356;2023-04-08T14:19:06;94977.34;;;17.78;27.67
49999;BME280;68071;45.062;7.356;2023-04-08T14:22:10;94971.06;;;17.65;26.76
49999;BME280;68071;45.062;7.356;2023-04-08T14:25:15;94970.34;;;17.42;29.79
49999;BME280;68071;45.062;7.356;2023-04-08T14:28:19;94972.25;;;17.23;29.61
49999;BME280;68071;45.062;7.356;2023-04-08T14:31:23;94965.63;;;18.02;26.84
49999;BME280;68071;45.062;7.356;2023-04-08T14:34:27;94958.88;;;18.40;25.13
49999;BME280;68071;45.062;7.356;2023-04-08T14:37:31;94962.13;;;17.79;24.17
49999;BME280;68071;45.062;7.356;2023-04-08T14:40:35;94972.34;;;17.73;27.26
49999;BME280;68071;45.062;7.356;2023-04-08T14:43:40;94961.16;;;17.73;25.52
49999;BME280;68071;45.062;7.356;2023-04-08T14:46:44;94968.63;;;17.76;28.64
49999;BME280;68071;45.062;7.356;2023-04-08T14:49:47;94971.53;;;17.32;30.74
49999;BME280;68071;45.062;7.356;2023-04-08T14:52:51;94957.56;;;18.04;27.15
49999;BME280;68071;45.062;7.356;2023-04-08T14:55:55;94956.63;;;17.98;27.02
49999;BME280;68071;45.062;7.356;2023-04-08T14:59:00;94957.94;;;18.43;25.84
49999;BME280;68071;45.062;7.356;2023-04-08T15:02:03;94961.50;;;18.35;26.74
49999;BME280;68071;45.062;7.356;2023-04-08T15:05:07;94960.25;;;18.26;26.14
49999;BME280;68071;45.062;7.356;2023-04-08T15:08:12;94968.94;;;17.78;28.89
49999;BME280;68071;45.062;7.356;2023-04-08T15:11:16;94960.56;;;18.28;27.77
49999;BME280;68071;45.062;7.356;2023-04-08T15:14:22;94964.31;;;18.63;25.93
49999;BME280;68071;45.062;7.356;2023-04-08T15:17:26;94971.00;;;18.56;26.01
49999;BME280;68071;45.062;7.356;2023-04-08T15:20:30;94966.19;;;18.66;25.11
49999;BME280;68071;45.062;7.356;2023-04-08T15:23:34;94964.63;;;19.20;23.58
49999;BME280;68071;45.062;7.356;2023-04-08T15:26:38;94965.88;;;18.45;26.23
49999;BME280;68071;45.062;7.356;2023-04-08T15:29:42;94965.88;;;19.01;24.94
49999;BME280;68071;45.062;7.356;2023-04-08T15:32:46;94965.38;;;19.30;24.87
49999;BME280;68071;45.062;7.356;2023-04-08T15:35:50;94967.63;;;18.98;24.59
49999;BME280;68071;45.062;7.356;2023-04-08T15:38:54;94964.75;;;19.26;26.05
49999;BME280;68071;45.062;7.356;2023-04-08T15:41:59;94964.75;;;19.26;24.51
49999;BME280;68071;45.062;7.356;2023-04-08T15:45:04;94966.81;;;18.98;24.96
49999;BME280;68071;45.062;7.356;2023-04-08T15:48:09;94965.41;;;18.84;25.29
49999;BME280;68071;45.062;7.356;2023-04-08T15:51:16;94967.59;;;17.92;23.55
49999;BME280;68071;45.062;7.356;2023-04-08T15:54:20;94969.75;;;18.57;25.23
49999;BME280;68071;45.062;7.356;2023-04-08T15:57:24;94966.00;;;19.34;24.38
49999;BME280;68071;45.062;7.356;2023-04-08T16:00:29;94959.47;;;19.28;23.79
49999;BME280;68071;45.062;7.356;2023-04-08T16:03:34;94966.03;;;19.16;25.12
49999;BME280;68071;45.062;7.356;2023-04-08T16:06:38;94962.13;;;19.13;24.67
49999;BME280;68071;45.062;7.356;2023-04-08T16:09:43;94969.38;;;19.48;25.34
49999;BME280;68071;45.062;7.356;2023-04-08T16:12:47;94963.81;;;19.82;24.90
49999;BME280;68071;45.062;7.356;2023-04-08T16:15:52;94965.69;;;19.75;23.99
49999;BME280;68071;45.062;7.356;2023-04-08T16:18:56;94973.22;;;20.03;23.36
49999;BME280;68071;45.062;7.356;2023-04-08T16:22:00;94968.59;;;20.24;23.88
49999;BME280;68071;45.062;7.356;2023-04-08T16:25:04;94976.25;;;20.48;23.14
49999;BME280;68071;45.062;7.356;2023-04-08T16:28:08;94973.09;;;20.31;23.01
49999;BME280;68071;45.062;7.356;2023-04-08T16:31:13;94980.50;;;19.14;24.16
49999;BME280;68071;45.062;7.356;2023-04-08T16:34:17;94983.38;;;19.57;23.74
49999;BME280;68071;45.062;7.356;2023-04-08T16:37:22;94983.50;;;19.63;23.70